Time;durP1;ratioP1;P1;durP2;ratioP2;P2;SDS_P1;SDS_P2;PMS_P1;PMS_P2;Temp;Humidity;BMP_temperature;BMP_pressure;BME280_temperature;BME280_humidity;BME280_pressure;Samples;Min_cycle;Max_cycle;Signal;HPM_P1;HPM_P2
2022/06/07 00:01:28;;;;;;;21.33;11.70;;;18.90;57.60;;;;;;4990966;28;20025;-70
2022/06/07 00:03:54;;;;;;;20.40;12.60;;;18.90;57.80;;;;;;5001050;28;20504;-68
2022/06/07 00:06:21;;;;;;;22.35;13.65;;;18.80;58.00;;;;;;4998457;28;20058;-69
2022/06/07 00:08:47;;;;;;;21.83;16.10;;;18.80;58.10;;;;;;4991995;28;20022;-69
2022/06/07 00:11:14;;;;;;;27.50;17.80;;;18.80;58.20;;;;;;4997775;28;20041;-69
2022/06/07 00:13:40;;;;;;;31.70;17.65;;;18.80;58.20;;;;;;4996420;28;20065;-69
2022/06/07 00:16:07;;;;;;;35.10;16.52;;;18.80;58.20;;;;;;5002467;28;20545;-69
2022/06/07 00:18:33;;;;;;;27.13;13.63;;;18.80;58.60;;;;;;4995745;28;20026;-69
2022/06/07 00:21:01;;;;;;;24.33;14.00;;;18.80;58.40;;;;;;4997609;28;20061;-69
2022/06/07 00:23:28;;;;;;;24.30;12.82;;;18.70;58.30;;;;;;4996054;28;20137;-70
2022/06/07 00:25:55;;;;;;;20.05;12.32;;;18.70;58.40;;;;;;4994885;28;20042;-69
2022/06/07 00:28:22;;;;;;;15.45;11.60;;;18.70;58.50;;;;;;4991849;28;20034;-70
2022/06/07 00:30:49;;;;;;;20.98;11.25;;;18.70;58.50;;;;;;4998314;28;20571;-70
2022/06/07 00:33:16;;;;;;;18.33;10.80;;;18.70;58.50;;;;;;4992512;28;20512;-70
2022/06/07 00:35:43;;;;;;;16.27;11.23;;;18.60;58.50;;;;;;4992930;28;20060;-69
2022/06/07 00:38:09;;;;;;;17.77;10.23;;;18.60;58.70;;;;;;4999097;28;20038;-68
2022/06/07 00:40:36;;;;;;;16.80;9.07;;;18.60;58.70;;;;;;4995286;28;20129;-68
2022/06/07 00:43:03;;;;;;;13.45;8.65;;;18.60;58.90;;;;;;4992220;28;20057;-69
2022/06/07 00:45:29;;;;;;;16.80;8.88;;;18.50;58.80;;;;;;4996126;28;20065;-69
2022/06/07 00:47:56;;;;;;;20.38;9.02;;;18.50;59.30;;;;;;4998308;28;20083;-69
2022/06/07 00:50:28;;;;;;;23.95;8.90;;;18.50;59.30;;;;;;4992616;28;20100;-69
2022/06/07 00:52:55;;;;;;;13.65;8.18;;;18.50;59.50;;;;;;4995865;28;20047;-69
2022/06/07 00:55:22;;;;;;;12.68;8.98;;;18.50;59.60;;;;;;4994792;28;20038;-69
2022/06/07 00:57:49;;;;;;;15.70;8.57;;;18.50;59.50;;;;;;4996702;28;20042;-69
2022/06/07 01:00:18;;;;;;;12.48;7.70;;;18.50;59.30;;;;;;4998966;28;20038;-68
2022/06/07 01:02:45;;;;;;;11.32;7.35;;;18.50;59.20;;;;;;5000162;28;20044;-70
2022/06/07 01:05:11;;;;;;;11.57;7.32;;;18.50;59.10;;;;;;5000172;28;20485;-68
2022/06/07 01:13:07;;;;;;;16.80;6.93;;;18.40;59.00;;;;;;4993204;28;20065;-68
2022/06/07 01:15:34;;;;;;;27.02;7.97;;;18.40;59.00;;;;;;4992832;28;20045;-69
2022/06/07 01:18:01;;;;;;;28.85;8.63;;;18.40;59.20;;;;;;4999318;28;20674;-69
2022/06/07 01:20:28;;;;;;;31.58;8.90;;;18.40;59.40;;;;;;5001074;28;20107;-68
2022/06/07 01:22:55;;;;;;;15.95;7.90;;;18.30;60.00;;;;;;4993533;28;20413;-69
2022/06/07 01:25:23;;;;;;;16.55;7.05;;;18.30;60.40;;;;;;4998043;28;20819;-69
2022/06/07 01:27:49;;;;;;;14.35;6.75;;;18.30;60.90;;;;;;4996495;28;20066;-69
2022/06/07 01:30:15;;;;;;;14.52;7.47;;;18.30;60.50;;;;;;4996789;28;20037;-69
2022/06/07 01:32:42;;;;;;;9.73;6.57;;;18.30;60.10;;;;;;4990828;28;20018;-69
2022/06/07 01:35:09;;;;;;;13.82;8.00;;;18.20;59.80;;;;;;4994975;28;20034;-69
2022/06/07 01:37:35;;;;;;;10.48;6.50;;;18.20;59.80;;;;;;4994625;28;20114;-69
2022/06/07 01:42:47;;;;;;;18.98;7.40;;;18.20;59.70;;;;;;4996523;28;20508;-69
2022/06/07 01:45:14;;;;;;;13.57;6.75;;;18.10;59.70;;;;;;4991551;28;20034;-69
2022/06/07 01:47:40;;;;;;;17.58;7.45;;;18.10;59.70;;;;;;4997600;28;20023;-69
2022/06/07 01:50:08;;;;;;;14.48;6.45;;;18.10;59.90;;;;;;4993283;28;20088;-69
2022/06/07 01:52:36;;;;;;;12.05;7.50;;;18.10;60.70;;;;;;4995849;28;20034;-69
2022/06/07 01:55:05;;;;;;;12.30;7.03;;;18.10;60.00;;;;;;4995674;28;20027;-69
2022/06/07 01:57:31;;;;;;;14.52;8.00;;;18.00;60.00;;;;;;4994548;28;20030;-69
2022/06/07 01:59:59;;;;;;;14.73;7.18;;;18.00;60.10;;;;;;4998841;28;20099;-69
2022/06/07 02:02:27;;;;;;;16.70;8.40;;;18.00;60.00;;;;;;4996731;28;20043;-69
2022/06/07 02:04:55;;;;;;;13.00;8.45;;;18.00;60.10;;;;;;5000782;28;20038;-69
2022/06/07 02:07:22;;;;;;;12.60;8.50;;;18.00;60.30;;;;;;4993120;28;20034;-69
2022/06/07 02:09:48;;;;;;;11.70;7.90;;;17.90;60.40;;;;;;4996170;28;20074;-69
2022/06/07 02:12:15;;;;;;;15.00;8.02;;;17.90;60.50;;;;;;5011284;28;20022;-70
2022/06/07 02:14:42;;;;;;;16.08;8.27;;;17.90;60.50;;;;;;4997329;28;20034;-69
2022/06/07 02:17:09;;;;;;;15.60;9.02;;;17.90;60.60;;;;;;4995081;28;20035;-69
2022/06/07 02:19:36;;;;;;;14.60;8.57;;;17.90;60.80;;;;;;4998844;28;20050;-69
2022/06/07 02:22:04;;;;;;;14.10;8.45;;;17.90;60.70;;;;;;4996222;28;20042;-69
2022/06/07 02:24:30;;;;;;;14.20;8.70;;;17.90;60.50;;;;;;4996506;28;20129;-69
2022/06/07 02:27:13;;;;;;;18.95;8.70;;;17.90;60.60;;;;;;4999107;28;20038;-68
2022/06/07 02:29:44;;;;;;;12.88;9.00;;;17.90;60.40;;;;;;4995423;28;20060;-69
2022/06/07 02:32:31;;;;;;;12.30;8.88;;;17.90;60.40;;;;;;5003367;28;20018;-69
2022/06/07 02:35:00;;;;;;;15.00;7.88;;;17.90;60.40;;;;;;4996620;28;20493;-69
2022/06/07 02:37:28;;;;;;;13.35;7.40;;;17.80;60.40;;;;;;4998245;28;20083;-69
2022/06/07 02:39:56;;;;;;;18.75;9.65;;;17.80;60.40;;;;;;5002074;28;20042;-69
2022/06/07 02:42:26;;;;;;;11.30;8.68;;;17.80;60.30;;;;;;4997668;28;20053;-69
2022/06/07 02:44:53;;;;;;;12.73;8.65;;;17.80;60.30;;;;;;4999894;28;20034;-70
2022/06/07 02:47:19;;;;;;;17.05;8.85;;;17.80;60.40;;;;;;5001419;28;20045;-69
2022/06/07 02:49:46;;;;;;;14.85;8.63;;;17.80;60.30;;;;;;5000088;28;20681;-69
2022/06/07 02:52:12;;;;;;;14.85;7.70;;;17.80;61.10;;;;;;4999541;28;20035;-69
2022/06/07 02:54:39;;;;;;;22.38;8.13;;;17.80;60.20;;;;;;4995286;28;20083;-69
2022/06/07 02:57:06;;;;;;;19.88;8.57;;;17.70;60.20;;;;;;4997101;28;20157;-69
2022/06/07 02:59:32;;;;;;;15.00;8.95;;;17.80;60.20;;;;;;5000018;28;20105;-70
2022/06/07 03:01:59;;;;;;;13.30;7.78;;;17.80;60.00;;;;;;4998441;28;20129;-70
2022/06/07 03:04:26;;;;;;;11.70;7.25;;;17.80;59.90;;;;;;4999990;28;20030;-69
2022/06/07 03:06:53;;;;;;;14.95;8.50;;;17.80;60.00;;;;;;4995862;28;20030;-69
2022/06/07 03:09:19;;;;;;;13.95;7.78;;;17.70;60.00;;;;;;4994971;28;20621;-69
2022/06/07 03:11:46;;;;;;;11.25;7.55;;;17.70;60.30;;;;;;4997542;28;20122;-69
2022/06/07 03:14:12;;;;;;;12.00;7.90;;;17.70;60.40;;;;;;4996126;28;20383;-69
2022/06/07 03:16:39;;;;;;;15.20;8.13;;;17.70;60.40;;;;;;4993752;28;20030;-69
2022/06/07 03:19:06;;;;;;;28.20;18.60;;;17.70;60.50;;;;;;4996732;28;20504;-69
2022/06/07 03:21:32;;;;;;;27.67;18.00;;;17.60;60.40;;;;;;4998162;28;20081;-69
2022/06/07 03:23:59;;;;;;;19.23;13.45;;;17.60;60.40;;;;;;4999876;28;20074;-69
2022/06/07 03:26:25;;;;;;;18.98;10.30;;;17.60;60.30;;;;;;4990624;28;20034;-69
2022/06/07 03:28:52;;;;;;;18.75;9.27;;;17.60;60.20;;;;;;5000664;28;20476;-69
2022/06/07 03:31:19;;;;;;;20.83;8.68;;;17.60;60.50;;;;;;5000979;28;20034;-69
2022/06/07 03:33:47;;;;;;;14.35;8.63;;;17.60;61.70;;;;;;4997722;28;20072;-69
2022/06/07 03:36:21;;;;;;;20.38;8.95;;;17.60;60.90;;;;;;5003363;28;20042;-69
2022/06/07 03:38:48;;;;;;;22.42;8.32;;;17.50;60.50;;;;;;4996349;28;20042;-69
2022/06/07 03:41:18;;;;;;;14.25;8.32;;;17.50;60.70;;;;;;5002340;28;20397;-69
2022/06/07 03:43:45;;;;;;;12.15;8.20;;;17.50;60.60;;;;;;4999069;28;20124;-69
2022/06/07 03:46:35;;;;;;;12.18;7.57;;;17.50;60.50;;;;;;4996585;28;20038;-69
2022/06/07 03:49:03;;;;;;;19.52;7.55;;;17.50;60.50;;;;;;5000380;28;20076;-68
2022/06/07 03:51:31;;;;;;;21.67;9.73;;;17.50;60.50;;;;;;4996650;28;20439;-68
2022/06/07 03:53:58;;;;;;;20.30;8.45;;;17.50;60.90;;;;;;4993155;28;20074;-70
2022/06/07 03:56:25;;;;;;;19.20;9.25;;;17.50;60.40;;;;;;4999977;28;20111;-70
2022/06/07 03:58:52;;;;;;;23.58;10.15;;;17.40;60.20;;;;;;4992284;28;20037;-69
2022/06/07 04:01:21;;;;;;;20.80;10.73;;;17.40;60.00;;;;;;4993509;28;20022;-71
2022/06/07 04:03:51;;;;;;;31.88;12.50;;;17.40;59.80;;;;;;4991077;28;20061;-70
2022/06/07 04:06:24;;;;;;;40.95;13.80;;;17.40;59.90;;;;;;4999805;28;20087;-70
2022/06/07 04:08:50;;;;;;;49.83;26.40;;;17.40;61.00;;;;;;4995890;28;20114;-67
2022/06/07 04:11:20;;;;;;;51.58;27.75;;;17.30;61.90;;;;;;4991491;28;20692;-69
2022/06/07 04:13:48;;;;;;;46.53;22.48;;;17.30;62.20;;;;;;4995918;28;20022;-69
2022/06/07 04:16:18;;;;;;;44.58;20.27;;;17.30;62.00;;;;;;4999530;28;20137;-69
2022/06/07 04:18:45;;;;;;;42.60;20.05;;;17.30;62.00;;;;;;4990121;28;20121;-68
2022/06/07 04:21:13;;;;;;;43.60;27.33;;;17.30;61.90;;;;;;4993196;28;20022;-70
2022/06/07 04:23:39;;;;;;;42.80;28.20;;;17.30;61.80;;;;;;5000840;28;20042;-67
2022/06/07 04:26:11;;;;;;;46.72;28.63;;;17.30;61.70;;;;;;5002207;28;20030;-68
2022/06/07 04:28:38;;;;;;;37.47;22.08;;;17.30;61.30;;;;;;4996100;28;21795;-65
2022/06/07 04:31:11;;;;;;;37.90;19.48;;;17.20;60.70;;;;;;5001126;28;20110;-68
2022/06/07 04:33:37;;;;;;;37.00;18.35;;;17.20;60.70;;;;;;4998628;28;20088;-70
2022/06/07 04:36:15;;;;;;;70.80;19.55;;;17.20;60.80;;;;;;5002370;28;20079;-68
2022/06/07 04:38:42;;;;;;;34.72;16.27;;;17.20;61.00;;;;;;4993714;28;20033;-70
2022/06/07 04:41:15;;;;;;;33.03;16.67;;;17.20;61.20;;;;;;5001051;28;20041;-68
2022/06/07 04:43:41;;;;;;;35.20;15.80;;;17.20;60.90;;;;;;4991822;28;20048;-68
2022/06/07 04:46:11;;;;;;;34.95;16.42;;;17.20;60.80;;;;;;4998655;28;20768;-69
2022/06/07 04:48:38;;;;;;;26.05;15.30;;;17.20;61.20;;;;;;5070742;28;20438;-68
2022/06/07 04:51:07;;;;;;;24.52;16.38;;;17.20;60.50;;;;;;4993820;28;20026;-66
2022/06/07 04:53:34;;;;;;;24.27;15.65;;;17.20;60.40;;;;;;4999340;28;20428;-69
2022/06/07 04:56:08;;;;;;;22.02;14.57;;;17.10;60.20;;;;;;4994964;28;20085;-69
2022/06/07 04:58:34;;;;;;;19.85;14.02;;;17.10;60.20;;;;;;4998139;28;20125;-67
2022/06/07 05:01:01;;;;;;;27.08;14.15;;;17.10;60.20;;;;;;4991088;28;20042;-66
2022/06/07 05:03:27;;;;;;;29.25;14.38;;;17.10;60.20;;;;;;4997271;28;20431;-66
2022/06/07 05:05:54;;;;;;;26.88;13.65;;;17.10;60.20;;;;;;4994489;28;20039;-66
2022/06/07 05:08:20;;;;;;;29.73;15.60;;;17.10;60.30;;;;;;4992434;28;20042;-66
2022/06/07 05:10:47;;;;;;;30.85;16.60;;;17.00;60.20;;;;;;4994976;28;20057;-72
2022/06/07 05:13:13;;;;;;;22.17;14.20;;;17.00;60.20;;;;;;4996766;28;20069;-66
2022/06/07 05:15:40;;;;;;;23.20;13.90;;;17.00;60.20;;;;;;4990880;28;20026;-66
2022/06/07 05:18:08;;;;;;;35.03;14.07;;;17.00;60.20;;;;;;4997371;28;20084;-73
2022/06/07 05:20:35;;;;;;;37.60;15.73;;;17.00;60.50;;;;;;4997178;28;20018;-70
2022/06/07 05:23:01;;;;;;;30.05;15.75;;;16.90;60.50;;;;;;4995615;28;20046;-66
2022/06/07 05:25:29;;;;;;;26.58;14.55;;;16.90;60.70;;;;;;4997878;28;20113;-69
2022/06/07 05:27:57;;;;;;;25.38;14.30;;;16.90;60.60;;;;;;4999452;28;20034;-66
2022/06/07 05:30:24;;;;;;;29.58;15.02;;;16.90;60.60;;;;;;4999248;28;20045;-66
2022/06/07 05:32:50;;;;;;;25.08;15.32;;;16.80;60.60;;;;;;4993773;28;20114;-67
2022/06/07 05:35:17;;;;;;;23.10;15.75;;;16.80;60.60;;;;;;4994646;28;20481;-70
2022/06/07 05:37:43;;;;;;;31.15;14.18;;;16.80;60.60;;;;;;4993805;28;20588;-69
2022/06/07 05:40:10;;;;;;;24.85;13.65;;;16.80;60.50;;;;;;4996610;28;20046;-73
2022/06/07 05:42:37;;;;;;;26.77;15.93;;;16.80;60.50;;;;;;4989663;28;20042;-66
2022/06/07 05:45:04;;;;;;;27.25;15.15;;;16.80;60.60;;;;;;4994806;28;20432;-70
2022/06/07 05:47:30;;;;;;;24.20;15.77;;;16.70;60.60;;;;;;5002991;28;20381;-67
2022/06/07 05:49:57;;;;;;;24.75;15.50;;;16.70;60.60;;;;;;4998819;28;20088;-66
2022/06/07 05:52:23;;;;;;;29.42;14.32;;;16.80;60.60;;;;;;5004794;28;20497;-75
2022/06/07 05:54:50;;;;;;;26.67;14.80;;;16.70;60.50;;;;;;4993571;28;20037;-67
2022/06/07 05:57:16;;;;;;;29.70;15.70;;;16.70;60.70;;;;;;4996512;28;20030;-67
2022/06/07 05:59:43;;;;;;;21.50;13.95;;;16.70;60.80;;;;;;5002879;28;20034;-66
2022/06/07 06:02:11;;;;;;;26.60;14.20;;;16.70;60.70;;;;;;5000624;28;20073;-66
2022/06/07 06:04:38;;;;;;;29.70;15.38;;;16.70;60.80;;;;;;4995919;28;20498;-67
2022/06/07 06:07:04;;;;;;;22.52;14.07;;;16.70;60.90;;;;;;4996923;28;20561;-66
2022/06/07 06:12:16;;;;;;;27.23;14.45;;;16.70;61.00;;;;;;5002434;28;20083;-66
2022/06/07 06:14:42;;;;;;;37.08;14.93;;;16.70;61.20;;;;;;4993202;28;20018;-66
2022/06/07 06:17:09;;;;;;;29.00;14.48;;;16.70;61.50;;;;;;5000946;28;20493;-67
2022/06/07 06:19:35;;;;;;;39.35;15.40;;;16.70;61.60;;;;;;5000435;28;20031;-68
2022/06/07 06:22:02;;;;;;;35.15;13.63;;;16.70;62.30;;;;;;5004739;28;20071;-66
2022/06/07 06:24:28;;;;;;;33.15;14.15;;;16.70;62.10;;;;;;4995270;28;20481;-69
2022/06/07 06:26:55;;;;;;;19.42;13.02;;;16.70;62.20;;;;;;4998135;28;20061;-70
2022/06/07 06:29:24;;;;;;;26.00;13.48;;;16.70;62.40;;;;;;5002983;28;20026;-65
2022/06/07 06:31:51;;;;;;;27.23;15.38;;;16.70;62.80;;;;;;4995695;28;20026;-67
2022/06/07 06:34:19;;;;;;;19.98;13.82;;;16.70;62.90;;;;;;4996250;28;20496;-70
2022/06/07 06:36:47;;;;;;;25.75;14.27;;;16.70;62.80;;;;;;4998892;28;20064;-72
2022/06/07 06:39:15;;;;;;;23.98;14.52;;;16.70;62.90;;;;;;4997997;28;20125;-66
2022/06/07 06:41:43;;;;;;;24.92;13.55;;;16.70;63.00;;;;;;4995910;28;20053;-66
2022/06/07 06:44:11;;;;;;;30.67;15.52;;;16.80;63.10;;;;;;4996322;28;20046;-66
2022/06/07 06:46:40;;;;;;;29.95;15.45;;;16.80;63.10;;;;;;5004611;28;20042;-67
2022/06/07 06:49:07;;;;;;;24.92;15.90;;;16.70;62.90;;;;;;4998420;28;20033;-72
2022/06/07 06:51:35;;;;;;;24.77;15.32;;;16.80;62.90;;;;;;5000353;28;20092;-67
2022/06/07 06:54:04;;;;;;;26.88;15.73;;;16.80;63.00;;;;;;4999589;28;20038;-70
2022/06/07 06:56:31;;;;;;;28.80;15.13;;;16.80;62.90;;;;;;5000807;28;20042;-68
2022/06/07 06:58:58;;;;;;;32.30;18.13;;;16.80;62.90;;;;;;4998680;28;20042;-73
2022/06/07 07:01:29;;;;;;;30.52;16.67;;;16.80;63.00;;;;;;4997686;28;20060;-66
2022/06/07 07:03:56;;;;;;;32.85;18.05;;;16.80;63.20;;;;;;4997850;28;20052;-66
2022/06/07 07:06:23;;;;;;;25.95;15.68;;;16.80;63.30;;;;;;4996592;28;20035;-66
2022/06/07 07:08:50;;;;;;;29.50;18.08;;;16.80;63.40;;;;;;5002106;28;20084;-66
2022/06/07 07:11:30;;;;;;;40.92;18.25;;;16.80;63.50;;;;;;4997576;28;20106;-67
2022/06/07 07:13:59;;;;;;;24.92;15.15;;;16.90;63.70;;;;;;5000066;28;20034;-67
2022/06/07 07:16:29;;;;;;;28.27;15.73;;;16.90;63.80;;;;;;4996409;28;20072;-66
2022/06/07 07:18:55;;;;;;;30.55;15.38;;;16.90;63.80;;;;;;4995194;28;20709;-69
2022/06/07 07:21:26;;;;;;;33.85;16.35;;;16.90;63.90;;;;;;4997763;28;20041;-66
2022/06/07 07:23:53;;;;;;;34.42;13.82;;;17.00;64.00;;;;;;5000701;28;20103;-72
2022/06/07 07:26:22;;;;;;;24.42;14.15;;;17.00;64.00;;;;;;4996565;28;20057;-68
2022/06/07 07:28:52;;;;;;;21.63;13.18;;;17.00;64.20;;;;;;4997439;28;20038;-66
2022/06/07 07:31:22;;;;;;;25.17;13.80;;;17.00;64.20;;;;;;4993546;28;20156;-66
2022/06/07 07:33:49;;;;;;;23.95;12.35;;;17.10;64.50;;;;;;4994079;28;20129;-72
2022/06/07 07:36:16;;;;;;;27.58;13.05;;;17.10;64.70;;;;;;4997403;28;20480;-69
2022/06/07 07:38:43;;;;;;;20.50;11.65;;;17.10;64.90;;;;;;4994585;28;20363;-73
2022/06/07 07:41:26;;;;;;;25.13;13.88;;;17.20;65.00;;;;;;5051723;28;20040;-74
2022/06/07 07:43:54;;;;;;;20.70;11.30;;;17.20;65.10;;;;;;5078934;28;20042;-69
2022/06/07 07:46:23;;;;;;;20.08;12.00;;;17.20;65.20;;;;;;5081028;28;20110;-68
2022/06/07 07:48:49;;;;;;;32.35;12.02;;;17.30;65.40;;;;;;5080726;28;20111;-71
2022/06/07 07:51:19;;;;;;;25.10;11.75;;;17.30;65.50;;;;;;5083068;28;20040;-73
2022/06/07 07:53:47;;;;;;;25.48;14.45;;;17.40;65.70;;;;;;5084428;28;20024;-68
2022/06/07 07:56:15;;;;;;;24.33;12.65;;;17.40;65.50;;;;;;5081347;28;20637;-68
2022/06/07 07:58:41;;;;;;;19.30;11.23;;;17.40;65.60;;;;;;5082470;28;20490;-67
2022/06/07 08:01:16;;;;;;;24.63;11.15;;;17.50;65.80;;;;;;5080536;28;20028;-71
2022/06/07 08:03:43;;;;;;;20.58;11.07;;;17.50;65.70;;;;;;5079008;28;20036;-71
2022/06/07 08:06:17;;;;;;;19.10;10.70;;;17.60;65.50;;;;;;5078548;28;20126;-68
2022/06/07 08:08:45;;;;;;;22.35;11.30;;;17.60;65.40;;;;;;5077968;28;20118;-69
2022/06/07 08:11:14;;;;;;;26.45;11.35;;;17.70;64.60;;;;;;5075576;28;20067;-75
2022/06/07 08:13:42;;;;;;;21.67;9.95;;;17.80;65.30;;;;;;5080389;28;20024;-68
2022/06/07 08:16:09;;;;;;;21.98;9.02;;;17.80;64.60;;;;;;5073347;28;20027;-71
2022/06/07 08:18:36;;;;;;;24.35;9.40;;;17.90;64.30;;;;;;5082758;28;20106;-74
2022/06/07 08:21:07;;;;;;;16.38;7.75;;;18.00;63.80;;;;;;5077356;28;20038;-71
2022/06/07 08:23:35;;;;;;;13.00;5.95;;;18.10;62.50;;;;;;5079165;28;20083;-68
2022/06/07 08:26:04;;;;;;;12.43;5.13;;;18.20;60.60;;;;;;5080043;28;20484;-72
2022/06/07 08:28:31;;;;;;;17.08;5.57;;;18.30;59.10;;;;;;5080510;28;20036;-76
2022/06/07 08:30:58;;;;;;;16.73;4.43;;;18.40;57.70;;;;;;5081290;28;20104;-69
2022/06/07 08:38:56;;;;;;;9.07;3.47;;;18.70;56.60;;;;;;5079464;28;20128;-71
2022/06/07 08:41:31;;;;;;;7.95;3.55;;;18.80;55.10;;;;;;5082001;28;20131;-72
2022/06/07 08:44:11;;;;;;;8.02;3.45;;;19.00;53.10;;;;;;5079580;28;20496;-68
2022/06/07 08:46:39;;;;;;;5.50;3.45;;;19.10;52.30;;;;;;5077034;28;20013;-71
2022/06/07 08:49:07;;;;;;;4.35;3.10;;;19.30;50.50;;;;;;5082768;28;20024;-68
2022/06/07 08:51:45;;;;;;;11.38;2.80;;;19.40;50.20;;;;;;5077320;28;20055;-68
2022/06/07 08:54:24;;;;;;;10.60;2.95;;;19.60;50.10;;;;;;5073964;28;20039;-75
2022/06/07 08:56:52;;;;;;;5.35;3.00;;;19.70;49.40;;;;;;5082232;28;20024;-68
2022/06/07 08:59:21;;;;;;;9.68;3.28;;;19.80;49.40;;;;;;5083268;28;20430;-76
2022/06/07 09:02:03;;;;;;;4.85;3.25;;;20.00;48.90;;;;;;5084402;28;20421;-75
2022/06/07 09:04:32;;;;;;;6.30;3.72;;;20.10;49.00;;;;;;5081059;28;20593;-75
2022/06/07 09:07:05;;;;;;;4.10;3.08;;;20.20;48.70;;;;;;5081544;28;20365;-76
2022/06/07 09:12:24;;;;;;;3.65;3.15;;;20.40;48.10;;;;;;5077986;28;20548;-71
2022/06/07 09:15:03;;;;;;;11.30;3.17;;;20.50;47.60;;;;;;5080222;28;20475;-68
2022/06/07 09:17:51;;;;;;;8.70;3.55;;;20.60;47.90;;;;;;5078058;28;20433;-69
2022/06/07 09:20:23;;;;;;;6.90;2.60;;;20.70;47.10;;;;;;5077839;28;20502;-69
2022/06/07 09:22:57;;;;;;;5.88;3.10;;;20.80;47.00;;;;;;5081275;28;20036;-69
2022/06/07 09:25:40;;;;;;;9.15;3.47;;;20.80;46.20;;;;;;5078500;28;20111;-68
2022/06/07 09:28:16;;;;;;;3.83;2.85;;;21.00;46.30;;;;;;5074908;28;20120;-76
2022/06/07 09:30:45;;;;;;;6.40;3.20;;;21.10;46.40;;;;;;5083323;28;20537;-69
2022/06/07 09:33:25;;;;;;;6.25;3.58;;;21.10;46.00;;;;;;5079976;28;20020;-74
2022/06/07 09:35:52;;;;;;;8.27;3.78;;;21.20;45.40;;;;;;5081056;28;20055;-68
2022/06/07 09:38:28;;;;;;;4.70;3.15;;;21.20;45.20;;;;;;5073712;28;20115;-73
2022/06/07 09:41:01;;;;;;;7.43;3.00;;;21.30;45.50;;;;;;5034116;28;20061;-68
2022/06/07 09:43:29;;;;;;;6.88;2.88;;;21.40;45.30;;;;;;4998621;28;20038;-74
2022/06/07 09:45:59;;;;;;;6.32;3.35;;;21.50;45.40;;;;;;4995210;28;20019;-69
2022/06/07 09:48:40;;;;;;;5.35;3.13;;;21.60;45.70;;;;;;4998644;28;20027;-70
2022/06/07 09:51:09;;;;;;;5.20;3.63;;;21.70;45.30;;;;;;4993195;28;20025;-76
2022/06/07 09:53:41;;;;;;;5.90;3.53;;;21.70;45.90;;;;;;4996133;28;20404;-68
2022/06/07 09:56:19;;;;;;;7.75;3.58;;;21.80;45.90;;;;;;4991681;28;20037;-69
2022/06/07 09:58:49;;;;;;;7.20;3.65;;;21.90;45.60;;;;;;4992234;28;20031;-71
2022/06/07 10:01:24;;;;;;;4.28;3.55;;;21.90;45.30;;;;;;4998611;28;20053;-69
2022/06/07 10:04:14;;;;;;;9.40;3.38;;;22.00;45.20;;;;;;4996752;28;20116;-73
2022/06/07 10:06:47;;;;;;;7.43;3.60;;;22.10;44.90;;;;;;4993271;28;20062;-77
2022/06/07 10:09:36;;;;;;;10.40;3.90;;;22.20;45.00;;;;;;4996469;28;20034;-68
2022/06/07 10:12:30;;;;;;;11.73;4.28;;;22.30;44.90;;;;;;4996542;28;20038;-71
2022/06/07 10:15:19;;;;;;;7.68;3.72;;;22.40;44.80;;;;;;5003688;28;20031;-69
2022/06/07 10:17:45;;;;;;;7.10;3.65;;;22.50;45.00;;;;;;4996366;28;20109;-72
2022/06/07 10:20:17;;;;;;;8.10;3.42;;;22.60;44.40;;;;;;4997639;28;20501;-76
2022/06/07 10:23:06;;;;;;;4.95;3.88;;;22.70;44.50;;;;;;4993013;28;20081;-75
2022/06/07 10:26:03;;;;;;;4.03;3.45;;;22.80;44.10;;;;;;5066662;28;20449;-73
2022/06/07 10:28:47;;;;;;;6.28;3.45;;;22.80;44.40;;;;;;4995458;28;20057;-72
2022/06/07 10:31:44;;;;;;;6.47;3.97;;;22.90;43.80;;;;;;4992211;28;20122;-70
2022/06/07 10:34:26;;;;;;;4.22;3.30;;;23.10;43.30;;;;;;4995154;28;20048;-70
2022/06/07 10:37:02;;;;;;;7.03;4.15;;;23.10;43.30;;;;;;4989433;28;20384;-67
2022/06/07 10:39:43;;;;;;;11.93;4.20;;;23.20;42.60;;;;;;4993337;28;20030;-67
2022/06/07 10:42:48;;;;;;;9.60;5.22;;;23.30;42.00;;;;;;5080150;28;20047;-68
2022/06/07 10:45:28;;;;;;;9.13;4.20;;;23.40;42.40;;;;;;5079475;28;20036;-68
2022/06/07 10:48:04;;;;;;;10.85;4.22;;;23.40;42.00;;;;;;5083725;28;20032;-72
2022/06/07 10:50:43;;;;;;;6.05;4.15;;;23.40;41.60;;;;;;5076956;28;20040;-67
2022/06/07 10:53:40;;;;;;;11.55;4.60;;;23.50;41.70;;;;;;5078490;28;20028;-76
2022/06/07 10:56:39;;;;;;;6.03;4.40;;;23.60;41.70;;;;;;5081952;28;20032;-76
2022/06/07 10:59:17;;;;;;;10.15;5.30;;;23.60;41.90;;;;;;5075930;28;20680;-73
2022/06/07 11:01:56;;;;;;;7.95;4.80;;;23.70;41.80;;;;;;5079107;28;20024;-68
2022/06/07 11:11:10;;;;;;;10.65;4.15;;;23.90;40.80;;;;;;5085452;28;20178;-71
2022/06/07 11:13:48;;;;;;;7.15;5.03;;;24.10;41.00;;;;;;5080531;28;20032;-75
2022/06/07 11:16:19;;;;;;;8.60;4.15;;;24.20;41.00;;;;;;5079625;28;20051;-68
2022/06/07 11:18:46;;;;;;;9.32;4.55;;;24.20;40.40;;;;;;5080559;28;20391;-75
2022/06/07 11:21:26;;;;;;;7.22;5.18;;;24.30;40.70;;;;;;5083938;28;20028;-74
2022/06/07 11:24:22;;;;;;;5.40;4.90;;;24.30;40.30;;;;;;5084252;28;20040;-67
2022/06/07 11:26:52;;;;;;;7.43;4.45;;;24.40;40.20;;;;;;5077926;28;20040;-67
2022/06/07 11:29:25;;;;;;;9.82;4.57;;;24.40;40.10;;;;;;5084675;28;20055;-73
2022/06/07 11:31:52;;;;;;;7.60;4.97;;;24.50;39.80;;;;;;5078520;28;20099;-71
2022/06/07 11:34:36;;;;;;;6.78;4.22;;;24.60;39.80;;;;;;5081422;28;20032;-70
2022/06/07 11:37:23;;;;;;;11.40;5.03;;;24.70;39.90;;;;;;5076251;28;20388;-71
2022/06/07 11:39:56;;;;;;;6.68;4.43;;;24.70;39.30;;;;;;5073897;28;20028;-72
2022/06/07 11:42:36;;;;;;;9.85;4.55;;;24.80;39.40;;;;;;5000368;28;20086;-72
2022/06/07 11:45:06;;;;;;;5.50;4.78;;;24.90;38.90;;;;;;4998751;28;20034;-69
2022/06/07 11:48:11;;;;;;;10.10;4.50;;;24.90;38.60;;;;;;4991527;28;20646;-68
2022/06/07 11:50:58;;;;;;;8.23;4.82;;;25.00;39.60;;;;;;4996211;28;20038;-68
2022/06/07 11:53:29;;;;;;;9.07;4.05;;;25.00;38.50;;;;;;4999401;28;20041;-68
2022/06/07 11:56:23;;;;;;;8.15;4.50;;;25.10;38.80;;;;;;4994598;28;20022;-68
2022/06/07 11:58:59;;;;;;;5.22;4.35;;;25.20;38.80;;;;;;4998324;28;20030;-67
2022/06/07 12:01:35;;;;;;;4.18;3.88;;;25.20;39.10;;;;;;4996214;28;20026;-68
2022/06/07 12:04:28;;;;;;;8.75;4.43;;;25.30;39.40;;;;;;4993815;28;20083;-67
2022/06/07 12:06:58;;;;;;;11.88;5.07;;;25.30;38.80;;;;;;4993805;28;20037;-67
2022/06/07 12:09:26;;;;;;;10.27;4.70;;;25.40;38.10;;;;;;4992742;28;20070;-68
2022/06/07 12:11:52;;;;;;;10.93;4.53;;;25.40;38.20;;;;;;4996289;28;20041;-73
2022/06/07 12:14:37;;;;;;;4.40;3.72;;;25.50;37.80;;;;;;4998515;28;20034;-68
2022/06/07 12:17:19;;;;;;;7.07;5.05;;;25.50;37.70;;;;;;4996551;28;20099;-71
2022/06/07 12:19:46;;;;;;;8.55;4.63;;;25.60;36.90;;;;;;4997082;28;20100;-68
2022/06/07 12:22:16;;;;;;;10.63;4.57;;;25.60;37.10;;;;;;4996353;28;20025;-77
2022/06/07 12:24:58;;;;;;;6.35;4.50;;;25.70;37.60;;;;;;4992017;28;20030;-68
2022/06/07 12:27:35;;;;;;;6.15;4.32;;;25.70;37.20;;;;;;4995537;28;20022;-68
2022/06/07 12:30:25;;;;;;;9.02;4.78;;;25.70;37.00;;;;;;5067547;28;20385;-68
2022/06/07 12:32:54;;;;;;;10.07;4.47;;;25.70;37.50;;;;;;4997023;28;20078;-68
2022/06/07 12:35:28;;;;;;;7.53;4.20;;;25.80;36.80;;;;;;4994354;28;20065;-67
2022/06/07 12:37:58;;;;;;;9.10;4.05;;;25.80;37.00;;;;;;4996651;28;20034;-68
2022/06/07 12:40:35;;;;;;;7.22;4.30;;;25.90;36.70;;;;;;4998716;28;20416;-68
2022/06/07 12:43:03;;;;;;;4.50;4.10;;;25.90;36.50;;;;;;4999005;28;20488;-68
2022/06/07 12:45:37;;;;;;;5.28;4.30;;;25.90;36.30;;;;;;4994198;28;20030;-71
2022/06/07 12:48:16;;;;;;;6.90;4.38;;;25.90;36.30;;;;;;4995881;28;20066;-68
2022/06/07 12:50:45;;;;;;;10.15;5.90;;;26.00;38.40;;;;;;4993974;28;20030;-69
2022/06/07 12:53:27;;;;;;;8.75;5.20;;;25.90;40.10;;;;;;4991503;28;20034;-67
2022/06/07 12:56:12;;;;;;;6.20;5.50;;;25.90;41.40;;;;;;4994162;28;20507;-68
2022/06/07 12:58:46;;;;;;;7.85;5.13;;;25.80;41.70;;;;;;4993785;28;20046;-71
2022/06/07 13:01:35;;;;;;;7.30;4.60;;;25.70;41.70;;;;;;4992331;28;20030;-75
2022/06/07 13:04:26;;;;;;;8.57;4.78;;;25.60;41.80;;;;;;5000067;28;20077;-73
2022/06/07 13:07:13;;;;;;;10.40;5.07;;;25.50;41.80;;;;;;4995832;28;20427;-68
2022/06/07 13:09:40;;;;;;;11.73;5.28;;;25.50;42.20;;;;;;4993974;28;20048;-70
2022/06/07 13:12:08;;;;;;;11.75;5.50;;;25.40;42.20;;;;;;4994307;28;20485;-68
2022/06/07 13:14:35;;;;;;;12.52;6.45;;;25.30;42.40;;;;;;4990976;28;20022;-77
2022/06/07 13:17:15;;;;;;;10.07;6.38;;;25.30;42.40;;;;;;5001118;28;20492;-75
2022/06/07 13:19:45;;;;;;;10.75;5.75;;;25.30;43.00;;;;;;4999765;28;20485;-69
2022/06/07 13:22:17;;;;;;;5.85;4.65;;;25.30;42.30;;;;;;4995691;28;20065;-74